createdAt,value
2023-05-01T00:01:43.682Z,7.97
2023-05-01T00:04:11.181Z,8.13
2023-05-01T00:06:38.970Z,8.70
2023-05-01T00:09:07.172Z,8.57
2023-05-01T00:11:37.380Z,9.27
2023-05-01T00:14:04.792Z,9.57
2023-05-01T00:16:32.865Z,9.07
2023-05-01T00:19:00.537Z,9.20
2023-05-01T00:21:28.900Z,10.75
2023-05-01T00:23:56.377Z,9.10
2023-05-01T00:26:27.202Z,9.80
2023-05-01T00:28:55.160Z,10.00
2023-05-01T00:31:22.615Z,10.10
2023-05-01T00:33:50.069Z,10.10
2023-05-01T00:36:17.737Z,9.93
2023-05-01T00:38:46.492Z,10.17
2023-05-01T00:41:14.142Z,10.73
2023-05-01T00:43:41.642Z,10.37
2023-05-01T00:46:10.130Z,10.97
2023-05-01T00:48:37.796Z,11.00
2023-05-01T00:51:06.483Z,11.30
2023-05-01T00:53:34.560Z,10.83
2023-05-01T00:56:02.105Z,10.73
2023-05-01T00:58:30.296Z,11.10
2023-05-01T01:00:58.304Z,11.00
2023-05-01T01:03:25.932Z,10.90
2023-05-01T01:06:08.460Z,10.43
2023-05-01T01:09:08.593Z,11.07
2023-05-01T01:11:58.824Z,11.27
2023-05-01T01:14:34.117Z,10.80
2023-05-01T01:17:05.921Z,11.30
2023-05-01T01:19:42.549Z,11.17
2023-05-01T01:22:13.178Z,10.77
2023-05-01T01:24:40.684Z,11.40
2023-05-01T01:27:27.421Z,10.63
2023-05-01T01:30:03.619Z,11.43
2023-05-01T01:32:50.135Z,12.07
2023-05-01T01:35:21.836Z,11.00
2023-05-01T01:37:50.905Z,11.53
2023-05-01T01:40:20.222Z,11.30
2023-05-01T01:42:53.777Z,11.60
2023-05-01T01:45:26.652Z,11.07
2023-05-01T01:47:55.622Z,11.37
2023-05-01T01:50:25.534Z,11.70
2023-05-01T01:52:53.983Z,11.63
2023-05-01T01:55:28.238Z,11.57
2023-05-01T01:57:57.062Z,10.80
2023-05-01T02:00:24.756Z,10.90
2023-05-01T02:02:53.332Z,10.93
2023-05-01T02:05:22.805Z,10.43
2023-05-01T02:07:52.052Z,10.93
2023-05-01T02:10:21.035Z,10.70
2023-05-01T02:12:51.103Z,10.37
2023-05-01T02:15:21.886Z,10.33
2023-05-01T02:17:51.371Z,10.30
2023-05-01T02:20:19.320Z,10.03
2023-05-01T02:22:47.501Z,10.33
2023-05-01T02:25:16.993Z,10.13
2023-05-01T02:27:49.052Z,10.17
2023-05-01T02:30:17.180Z,9.77
2023-05-01T02:32:44.819Z,8.10
2023-05-01T02:35:12.476Z,7.63
2023-05-01T02:37:40.265Z,7.90
2023-05-01T02:40:08.693Z,7.93
2023-05-01T02:42:37.752Z,7.90
2023-05-01T02:45:07.541Z,8.27
2023-05-01T02:47:37.168Z,7.93
2023-05-01T02:50:05.303Z,8.10
2023-05-01T02:52:34.755Z,8.50
2023-05-01T02:55:25.922Z,7.93
2023-05-01T02:57:53.497Z,8.40
2023-05-01T03:00:20.957Z,8.77
2023-05-01T03:02:48.620Z,8.93
2023-05-01T03:05:16.582Z,8.40
2023-05-01T03:07:44.758Z,9.10
2023-05-01T03:10:12.424Z,10.17
2023-05-01T03:12:40.640Z,9.50
2023-05-01T03:15:08.434Z,9.57
2023-05-01T03:17:36.138Z,9.43
2023-05-01T03:20:06.359Z,10.00
2023-05-01T03:22:34.183Z,9.93
2023-05-01T03:25:01.653Z,9.53
2023-05-01T03:27:29.963Z,9.23
2023-05-01T03:29:58.273Z,9.30
2023-05-01T03:32:26.422Z,9.80
2023-05-01T03:34:54.826Z,9.73
2023-05-01T03:37:22.438Z,10.00
2023-05-01T03:39:51.720Z,10.17
2023-05-01T03:42:37.804Z,10.63
2023-05-01T03:45:12.257Z,9.87
2023-05-01T03:47:40.169Z,10.57
2023-05-01T03:50:09.260Z,10.17
2023-05-01T03:52:39.032Z,10.87
2023-05-01T03:55:07.596Z,9.80
2023-05-01T03:57:42.235Z,9.80
2023-05-01T04:00:11.916Z,9.60
2023-05-01T04:02:47.783Z,9.07
2023-05-01T04:05:22.937Z,9.57
2023-05-01T04:07:54.547Z,9.30
2023-05-01T04:10:21.940Z,8.70
2023-05-01T04:12:57.726Z,9.80
2023-05-01T04:15:25.260Z,10.70
2023-05-01T04:17:54.300Z,11.07
2023-05-01T04:20:21.755Z,11.20
2023-05-01T04:22:50.086Z,11.35
2023-05-01T04:25:18.321Z,11.75
2023-05-01T04:27:48.499Z,11.25
2023-05-01T04:30:16.880Z,11.68
2023-05-01T04:32:44.776Z,11.65
2023-05-01T04:35:12.576Z,11.68
2023-05-01T04:37:43.505Z,11.27
2023-05-01T04:40:11.931Z,11.45
2023-05-01T04:42:40.747Z,11.52
2023-05-01T04:45:11.202Z,9.77
2023-05-01T04:47:38.726Z,9.88
2023-05-01T04:50:06.849Z,9.30
2023-05-01T04:52:34.714Z,9.57
2023-05-01T04:55:04.099Z,9.40
2023-05-01T04:57:35.475Z,8.98
2023-05-01T05:00:07.993Z,8.77
2023-05-01T05:02:43.604Z,8.57
2023-05-01T05:05:13.130Z,9.05
2023-05-01T05:07:40.701Z,8.82
2023-05-01T05:10:26.767Z,9.57
2023-05-01T05:13:11.125Z,9.63
2023-05-01T05:15:39.719Z,9.07
2023-05-01T05:18:10.680Z,9.73
2023-05-01T05:20:41.290Z,9.18
2023-05-01T05:23:09.386Z,9.48
2023-05-01T05:25:37.272Z,9.38
2023-05-01T05:28:05.117Z,8.95
2023-05-01T05:30:32.830Z,8.68
2023-05-01T05:33:00.816Z,10.18
2023-05-01T05:35:28.473Z,9.73
2023-05-01T05:37:56.051Z,9.13
2023-05-01T05:40:24.401Z,9.63
2023-05-01T05:42:57.386Z,9.07
2023-05-01T05:45:27.338Z,9.52
2023-05-01T05:47:55.385Z,9.57
2023-05-01T05:50:23.898Z,9.32
2023-05-01T05:52:51.605Z,9.00
2023-05-01T05:55:19.477Z,8.88
2023-05-01T05:58:00.152Z,8.80
2023-05-01T06:00:28.148Z,9.48
2023-05-01T06:02:57.473Z,8.85
2023-05-01T06:05:28.004Z,9.55
2023-05-01T06:07:55.917Z,10.23
2023-05-01T06:10:23.299Z,9.98
2023-05-01T06:12:57.527Z,9.60
2023-05-01T06:15:30.111Z,9.15
2023-05-01T06:17:59.222Z,10.00
2023-05-01T06:20:27.056Z,10.25
2023-05-01T06:22:56.196Z,11.05
2023-05-01T06:25:31.186Z,8.57
2023-05-01T06:27:58.914Z,9.85
2023-05-01T06:30:26.515Z,9.52
2023-05-01T06:32:54.006Z,9.65
2023-05-01T06:35:21.999Z,10.00
2023-05-01T06:37:50.729Z,10.52
2023-05-01T06:40:18.167Z,10.10
2023-05-01T06:42:45.661Z,9.57
2023-05-01T06:45:13.107Z,8.38
2023-05-01T06:47:40.822Z,7.50
2023-05-01T06:50:09.756Z,7.63
2023-05-01T06:52:37.178Z,6.82
2023-05-01T06:55:07.280Z,6.53
2023-05-01T06:57:35.221Z,5.72
2023-05-01T07:00:02.609Z,6.32
2023-05-01T07:02:30.298Z,5.03
2023-05-01T07:04:57.787Z,5.30
2023-05-01T07:07:25.199Z,4.70
2023-05-01T07:09:52.576Z,4.05
2023-05-01T07:12:19.975Z,4.40
2023-05-01T07:14:47.518Z,4.25
2023-05-01T07:17:14.866Z,4.32
2023-05-01T07:19:42.560Z,4.05
2023-05-01T07:22:10.051Z,3.65
2023-05-01T07:24:37.373Z,4.05
2023-05-01T07:27:04.929Z,3.90
2023-05-01T07:29:32.340Z,4.15
2023-05-01T07:32:01.480Z,3.45
2023-05-01T07:34:28.901Z,3.40
2023-05-01T07:36:57.028Z,2.80
2023-05-01T07:39:25.178Z,2.90
2023-05-01T07:41:52.547Z,2.72
2023-05-01T07:44:19.924Z,2.50
2023-05-01T07:46:47.277Z,2.47
2023-05-01T07:49:14.799Z,2.70
2023-05-01T07:51:42.814Z,2.30
2023-05-01T07:54:10.445Z,2.42
2023-05-01T07:56:37.973Z,2.70
2023-05-01T07:59:05.553Z,2.60
2023-05-01T08:01:34.970Z,2.65
2023-05-01T08:04:02.519Z,2.95
2023-05-01T08:06:32.208Z,2.45
2023-05-01T08:08:59.795Z,2.55
2023-05-01T08:11:29.423Z,2.50
2023-05-01T08:13:56.880Z,2.75
2023-05-01T08:16:24.438Z,2.80
2023-05-01T08:18:51.860Z,2.88
2023-05-01T08:21:19.235Z,3.00
2023-05-01T08:23:46.710Z,2.20
2023-05-01T08:26:14.150Z,2.58
2023-05-01T08:28:42.352Z,2.72
2023-05-01T08:31:09.835Z,3.08
2023-05-01T08:33:37.244Z,2.70
2023-05-01T08:36:04.905Z,2.67
2023-05-01T08:38:32.403Z,3.50
2023-05-01T08:41:01.766Z,2.63
2023-05-01T08:43:31.612Z,2.63
2023-05-01T08:46:03.138Z,2.70
2023-05-01T08:48:32.727Z,2.72
2023-05-01T08:51:01.472Z,2.70
2023-05-01T08:53:29.796Z,3.00
2023-05-01T08:55:57.565Z,2.88
2023-05-01T08:58:26.538Z,3.10
2023-05-01T09:00:56.829Z,3.05
2023-05-01T09:03:24.850Z,2.67
2023-05-01T09:05:53.219Z,3.10
2023-05-01T09:08:20.847Z,3.15
2023-05-01T09:10:49.364Z,3.00
2023-05-01T09:13:17.125Z,3.08
2023-05-01T09:15:44.801Z,3.40
2023-05-01T09:18:13.013Z,3.35
2023-05-01T09:20:41.236Z,3.53
2023-05-01T09:23:08.710Z,3.20
2023-05-01T09:25:36.623Z,3.50
2023-05-01T09:28:05.905Z,3.35
2023-05-01T09:30:34.497Z,3.25
2023-05-01T09:33:12.371Z,3.30
2023-05-01T09:35:56.207Z,3.55
2023-05-01T09:38:27.868Z,3.22
2023-05-01T09:40:56.942Z,3.17
2023-05-01T09:43:31.863Z,3.00
2023-05-01T09:46:05.065Z,2.90
2023-05-01T09:48:35.051Z,2.80
2023-05-01T09:51:20.357Z,2.72
2023-05-01T09:53:47.919Z,2.90
2023-05-01T09:56:15.311Z,2.50
2023-05-01T09:58:42.688Z,2.60
2023-05-01T10:01:10.403Z,2.50
2023-05-01T10:03:38.747Z,2.95
2023-05-01T10:06:06.371Z,2.53
2023-05-01T10:08:50.236Z,2.75
2023-05-01T10:11:17.738Z,2.60
2023-05-01T10:13:45.077Z,2.85
2023-05-01T10:16:31.941Z,2.20
2023-05-01T10:19:02.427Z,2.63
2023-05-01T10:21:33.347Z,2.10
2023-05-01T10:24:03.113Z,2.45
2023-05-01T10:26:30.884Z,2.75
2023-05-01T10:28:59.578Z,2.50
2023-05-01T10:31:27.932Z,2.63
2023-05-01T10:33:56.053Z,2.60
2023-05-01T10:36:39.267Z,2.33
2023-05-01T10:39:07.271Z,2.22
2023-05-01T10:41:53.265Z,2.55
2023-05-01T10:44:21.811Z,2.45
2023-05-01T10:46:49.172Z,2.40
2023-05-01T10:49:17.058Z,2.25
2023-05-01T10:51:59.873Z,2.58
2023-05-01T10:54:27.372Z,2.25
2023-05-01T10:56:55.982Z,2.50
2023-05-01T10:59:23.527Z,2.67
2023-05-01T11:01:54.687Z,2.30
2023-05-01T11:04:25.372Z,2.80
2023-05-01T11:07:06.470Z,2.30
2023-05-01T11:09:43.671Z,2.70
2023-05-01T11:12:12.627Z,2.38
2023-05-01T11:14:56.847Z,2.08
2023-05-01T11:17:43.107Z,2.20
2023-05-01T11:20:34.607Z,2.70
2023-05-01T11:23:02.150Z,2.72
2023-05-01T11:25:34.012Z,2.40
2023-05-01T11:28:02.507Z,2.28
2023-05-01T11:30:42.496Z,2.60
2023-05-01T11:33:11.164Z,2.38
2023-05-01T11:35:39.339Z,2.40
2023-05-01T11:38:06.760Z,2.70
2023-05-01T11:40:35.293Z,2.38
2023-05-01T11:43:04.082Z,2.30
2023-05-01T11:45:31.977Z,2.25
2023-05-01T11:48:02.858Z,2.60
2023-05-01T11:50:35.874Z,2.45
2023-05-01T11:53:04.236Z,2.75
2023-05-01T11:55:32.418Z,2.60
2023-05-01T11:57:59.804Z,2.75
2023-05-01T12:00:31.678Z,2.50
2023-05-01T12:03:00.223Z,2.65
2023-05-01T12:05:28.834Z,2.47
2023-05-01T12:08:13.403Z,2.55
2023-05-01T12:10:42.690Z,2.55
2023-05-01T12:13:11.027Z,3.00
2023-05-01T12:15:40.931Z,3.15
2023-05-01T12:18:08.976Z,3.55
2023-05-01T12:20:40.930Z,3.00
2023-05-01T12:23:10.668Z,2.65
2023-05-01T12:25:39.506Z,2.78
2023-05-01T12:28:10.574Z,3.03
2023-05-01T12:30:38.696Z,2.75
2023-05-01T12:33:16.635Z,3.00
2023-05-01T12:35:47.922Z,3.10
2023-05-01T12:38:22.167Z,2.72
2023-05-01T12:40:57.806Z,3.10
2023-05-01T12:43:32.536Z,3.03
2023-05-01T12:46:00.420Z,3.17
2023-05-01T12:48:28.347Z,3.22
2023-05-01T12:50:56.287Z,2.70
2023-05-01T12:53:27.975Z,3.15
2023-05-01T12:55:56.998Z,2.90
2023-05-01T12:58:24.956Z,2.83
2023-05-01T13:00:53.809Z,2.60
2023-05-01T13:03:25.304Z,2.60
2023-05-01T13:05:59.979Z,2.28
2023-05-01T13:08:29.166Z,2.25
2023-05-01T13:10:57.412Z,2.30
2023-05-01T13:13:28.681Z,2.22
2023-05-01T13:16:04.324Z,2.70
2023-05-01T13:18:32.499Z,2.33
2023-05-01T13:21:08.135Z,2.40
2023-05-01T13:23:35.968Z,2.42
2023-05-01T13:26:04.974Z,2.30
2023-05-01T13:28:32.396Z,2.35
2023-05-01T13:30:59.980Z,2.70
2023-05-01T13:33:28.459Z,2.47
2023-05-01T13:35:57.337Z,2.38
2023-05-01T13:38:25.211Z,2.22
2023-05-01T13:40:53.077Z,2.33
2023-05-01T13:43:22.416Z,2.45
2023-05-01T13:45:49.953Z,2.35
2023-05-01T13:48:19.034Z,2.17
2023-05-01T13:50:46.501Z,2.40
2023-05-01T13:53:14.972Z,2.50
2023-05-01T13:55:43.079Z,2.70
2023-05-01T13:58:10.563Z,2.58
2023-05-01T14:00:38.672Z,2.40
2023-05-01T14:03:06.626Z,2.38
2023-05-01T14:05:34.211Z,2.40
2023-05-01T14:08:02.290Z,2.67
2023-05-01T14:10:29.925Z,2.40
2023-05-01T14:12:58.746Z,2.53
2023-05-01T14:15:26.692Z,2.15
2023-05-01T14:17:54.228Z,2.10
2023-05-01T14:20:21.829Z,2.63
2023-05-01T14:22:52.042Z,2.40
2023-05-01T14:25:26.740Z,2.30
2023-05-01T14:27:55.120Z,2.45
2023-05-01T14:30:30.060Z,2.40
2023-05-01T14:32:57.691Z,2.00
2023-05-01T14:35:25.503Z,2.40
2023-05-01T14:37:53.008Z,2.30
2023-05-01T14:40:26.910Z,2.17
2023-05-01T14:42:58.532Z,2.72
2023-05-01T14:45:25.984Z,2.28
2023-05-01T14:47:53.420Z,2.10
2023-05-01T14:50:21.746Z,2.53
2023-05-01T14:52:54.432Z,2.35
2023-05-01T14:55:24.317Z,2.33
2023-05-01T14:57:51.732Z,2.15
2023-05-01T15:00:19.636Z,1.90
2023-05-01T15:02:47.274Z,2.10
2023-05-01T15:05:15.079Z,2.30
2023-05-01T15:07:42.513Z,2.13
2023-05-01T15:10:10.444Z,1.95
2023-05-01T15:12:37.760Z,2.30
2023-05-01T15:15:05.646Z,2.10
2023-05-01T15:17:33.215Z,2.05
2023-05-01T15:20:00.914Z,2.05
2023-05-01T15:22:28.358Z,2.00
2023-05-01T15:24:55.926Z,2.30
2023-05-01T15:27:23.475Z,2.42
2023-05-01T15:29:51.174Z,2.28
2023-05-01T15:32:18.880Z,2.50
2023-05-01T15:34:46.413Z,2.00
2023-05-01T15:37:13.874Z,2.40
2023-05-01T15:39:41.610Z,2.50
2023-05-01T15:42:09.818Z,1.98
2023-05-01T15:44:37.279Z,2.30
2023-05-01T15:47:04.889Z,2.20
2023-05-01T15:49:32.383Z,2.22
2023-05-01T15:52:00.024Z,2.17
2023-05-01T15:54:27.901Z,2.33
2023-05-01T15:56:55.674Z,2.10
2023-05-01T15:59:23.202Z,2.30
2023-05-01T16:01:53.465Z,2.50
2023-05-01T16:04:21.906Z,2.38
2023-05-01T16:06:49.332Z,2.40
2023-05-01T16:09:16.856Z,2.60
2023-05-01T16:11:44.851Z,2.50
2023-05-01T16:14:12.782Z,2.40
2023-05-01T16:16:43.032Z,2.40
2023-05-01T16:19:13.033Z,2.50
2023-05-01T16:21:40.481Z,2.67
2023-05-01T16:24:07.929Z,2.50
2023-05-01T16:26:36.005Z,2.63
2023-05-01T16:29:05.846Z,2.67
2023-05-01T16:31:38.991Z,2.80
2023-05-01T16:34:07.479Z,2.83
2023-05-01T16:36:42.541Z,2.80
2023-05-01T16:39:20.880Z,2.40
2023-05-01T16:41:49.316Z,2.50
2023-05-01T16:44:20.536Z,2.70
2023-05-01T16:46:58.749Z,2.30
2023-05-01T16:49:29.750Z,2.47
2023-05-01T16:51:58.633Z,2.50
2023-05-01T16:54:35.687Z,2.83
2023-05-01T16:57:03.633Z,2.70
2023-05-01T16:59:31.599Z,2.60
2023-05-01T17:01:59.056Z,2.53
2023-05-01T17:04:26.796Z,2.75
2023-05-01T17:06:56.265Z,2.72
2023-05-01T17:09:23.777Z,2.60
2023-05-01T17:11:56.907Z,2.97
2023-05-01T17:14:24.725Z,2.88
2023-05-01T17:16:52.183Z,2.90
2023-05-01T17:19:19.604Z,3.00
2023-05-01T17:21:47.089Z,3.03
2023-05-01T17:24:14.820Z,2.65
2023-05-01T17:26:42.272Z,3.10
2023-05-01T17:29:09.768Z,2.90
2023-05-01T17:31:37.323Z,3.20
2023-05-01T17:34:05.104Z,2.70
2023-05-01T17:36:32.728Z,2.90
2023-05-01T17:39:01.446Z,3.55
2023-05-01T17:41:28.981Z,3.08
2023-05-01T17:43:56.444Z,3.00
2023-05-01T17:46:23.925Z,2.95
2023-05-01T17:48:51.503Z,3.33
2023-05-01T17:51:18.877Z,3.35
2023-05-01T17:53:46.429Z,3.17
2023-05-01T17:56:13.903Z,3.08
2023-05-01T17:58:42.217Z,3.38
2023-05-01T18:01:10.355Z,3.80
2023-05-01T18:03:39.189Z,3.95
2023-05-01T18:06:06.680Z,3.67
2023-05-01T18:08:34.184Z,3.92
2023-05-01T18:11:02.036Z,4.22
2023-05-01T18:13:30.158Z,4.50
2023-05-01T18:15:57.582Z,4.40
2023-05-01T18:18:24.979Z,4.32
2023-05-01T18:20:52.429Z,4.28
2023-05-01T18:23:20.168Z,4.18
2023-05-01T18:25:47.549Z,4.47
2023-05-01T18:28:16.601Z,4.28
2023-05-01T18:30:44.124Z,4.10
2023-05-01T18:33:13.110Z,4.50
2023-05-01T18:35:42.282Z,4.50
2023-05-01T18:38:10.439Z,4.78
2023-05-01T18:40:38.098Z,4.60
2023-05-01T18:43:05.818Z,5.57
2023-05-01T18:45:33.344Z,5.25
2023-05-01T18:48:01.462Z,5.60
2023-05-01T18:50:29.168Z,5.82
2023-05-01T18:52:56.569Z,5.50
2023-05-01T18:55:25.216Z,5.57
2023-05-01T18:57:52.753Z,5.80
2023-05-01T19:00:21.406Z,5.93
2023-05-01T19:02:51.979Z,5.88
2023-05-01T19:05:20.146Z,5.18
2023-05-01T19:07:47.714Z,5.32
2023-05-01T19:10:15.194Z,4.90
2023-05-01T19:12:42.573Z,5.00
2023-05-01T19:15:10.628Z,5.03
2023-05-01T19:17:38.153Z,4.45
2023-05-01T19:20:06.071Z,5.07
2023-05-01T19:22:33.465Z,5.00
2023-05-01T19:25:01.195Z,5.45
2023-05-01T19:27:28.692Z,5.47
2023-05-01T19:29:56.933Z,6.60
2023-05-01T19:32:24.767Z,7.57
2023-05-01T19:34:52.445Z,13.10
2023-05-01T19:37:20.229Z,9.60
2023-05-01T19:39:47.869Z,6.18
2023-05-01T19:42:15.969Z,6.20
2023-05-01T19:44:43.537Z,6.05
2023-05-01T19:47:10.920Z,6.05
2023-05-01T19:49:39.030Z,6.38
2023-05-01T19:52:06.587Z,5.93
2023-05-01T19:54:34.210Z,6.57
2023-05-01T19:57:02.065Z,6.28
2023-05-01T19:59:30.736Z,6.30
2023-05-01T20:02:00.470Z,6.68
2023-05-01T20:04:29.022Z,6.80
2023-05-01T20:06:56.617Z,6.70
2023-05-01T20:09:24.022Z,6.47
2023-05-01T20:11:52.092Z,6.70
2023-05-01T20:14:19.488Z,6.65
2023-05-01T20:16:48.288Z,6.38
2023-05-01T20:19:17.784Z,7.10
2023-05-01T20:21:45.330Z,6.82
2023-05-01T20:24:12.787Z,6.35
2023-05-01T20:26:40.137Z,6.35
2023-05-01T20:29:09.428Z,6.38
2023-05-01T20:31:37.416Z,6.60
2023-05-01T20:34:05.134Z,6.13
2023-05-01T20:36:32.599Z,6.43
2023-05-01T20:39:00.144Z,6.90
2023-05-01T20:41:29.291Z,6.60
2023-05-01T20:43:57.126Z,6.97
2023-05-01T20:46:24.982Z,6.53
2023-05-01T20:48:53.509Z,7.15
2023-05-01T20:51:21.068Z,7.88
2023-05-01T20:53:48.678Z,7.30
2023-05-01T20:56:16.173Z,7.28
2023-05-01T20:58:43.671Z,7.20
2023-05-01T21:01:11.859Z,7.22
2023-05-01T21:03:40.493Z,7.38
2023-05-01T21:06:08.315Z,7.90
2023-05-01T21:08:35.825Z,7.68
2023-05-01T21:11:03.386Z,7.57
2023-05-01T21:13:32.260Z,8.07
2023-05-01T21:15:59.868Z,7.97
2023-05-01T21:18:28.433Z,7.45
2023-05-01T21:20:55.921Z,9.20
2023-05-01T21:23:26.125Z,7.88
2023-05-01T21:25:56.703Z,7.88
2023-05-01T21:28:24.500Z,7.57
2023-05-01T21:30:52.161Z,8.10
2023-05-01T21:33:19.676Z,7.75
2023-05-01T21:35:47.718Z,7.55
2023-05-01T21:38:15.384Z,7.72
2023-05-01T21:40:44.633Z,7.40
2023-05-01T21:43:12.269Z,7.90
2023-05-01T21:45:43.288Z,8.00
2023-05-01T21:48:14.516Z,7.82
2023-05-01T21:50:42.300Z,8.15
2023-05-01T21:53:09.849Z,8.10
2023-05-01T21:55:39.673Z,8.27
2023-05-01T21:58:07.019Z,7.72
2023-05-01T22:00:34.771Z,8.18
2023-05-01T22:03:06.016Z,7.20
2023-05-01T22:05:34.602Z,7.68
2023-05-01T22:08:02.286Z,7.55
2023-05-01T22:10:29.829Z,8.63
2023-05-01T22:12:57.267Z,7.93
2023-05-01T22:15:24.783Z,8.38
2023-05-01T22:17:52.610Z,8.38
2023-05-01T22:20:20.384Z,8.45
2023-05-01T22:22:47.998Z,8.25
2023-05-01T22:25:16.179Z,8.60
2023-05-01T22:27:43.574Z,13.48
2023-05-01T22:30:11.411Z,11.40
2023-05-01T22:32:39.022Z,10.05
2023-05-01T22:35:08.572Z,7.80
2023-05-01T22:37:37.666Z,8.63
2023-05-01T22:40:05.790Z,8.25
2023-05-01T22:42:33.603Z,8.70
2023-05-01T22:45:13.605Z,8.30
2023-05-01T22:47:41.277Z,9.38
2023-05-01T22:50:10.328Z,8.52
2023-05-01T22:52:37.676Z,8.60
2023-05-01T22:55:05.484Z,8.65
2023-05-01T22:57:32.900Z,9.10
2023-05-01T23:00:00.992Z,8.52
2023-05-01T23:02:28.714Z,8.75
2023-05-01T23:04:56.392Z,8.48
2023-05-01T23:07:23.772Z,8.73
2023-05-01T23:09:51.355Z,8.50
2023-05-01T23:12:23.294Z,9.43
2023-05-01T23:14:50.729Z,9.98
2023-05-01T23:17:18.417Z,8.25
2023-05-01T23:19:46.627Z,9.35
2023-05-01T23:22:14.414Z,8.52
2023-05-01T23:24:48.803Z,8.38
2023-05-01T23:27:20.148Z,9.02
2023-05-01T23:29:55.156Z,9.20
2023-05-01T23:32:27.077Z,9.43
2023-05-01T23:34:55.566Z,8.95
2023-05-01T23:37:23.254Z,8.75
2023-05-01T23:39:52.528Z,9.60
2023-05-01T23:42:20.835Z,9.48
2023-05-01T23:44:48.309Z,9.13
2023-05-01T23:47:16.298Z,9.48
2023-05-01T23:49:43.909Z,9.25
2023-05-01T23:52:11.570Z,9.40
2023-05-01T23:54:39.072Z,8.82
2023-05-01T23:57:06.531Z,10.25
2023-05-01T23:59:34.486Z,9.15
